createdAt,value
2022-08-29T00:02:15.582Z,1.63
2022-08-29T00:04:47.323Z,1.58
2022-08-29T00:07:18.573Z,1.40
2022-08-29T00:09:50.894Z,1.55
2022-08-29T00:12:21.620Z,1.70
2022-08-29T00:14:52.355Z,1.48
2022-08-29T00:17:23.056Z,1.40
2022-08-29T00:19:54.065Z,1.55
2022-08-29T00:22:24.300Z,1.33
2022-08-29T00:24:57.169Z,1.30
2022-08-29T00:27:28.137Z,1.30
2022-08-29T00:29:59.074Z,1.50
2022-08-29T00:32:35.448Z,1.30
2022-08-29T00:35:09.021Z,1.58
2022-08-29T00:37:40.161Z,1.35
2022-08-29T00:40:21.574Z,1.45
2022-08-29T00:42:52.909Z,1.50
2022-08-29T00:45:25.076Z,1.27
2022-08-29T00:48:00.192Z,1.40
2022-08-29T00:50:38.399Z,1.38
2022-08-29T00:53:17.526Z,1.33
2022-08-29T00:55:52.093Z,1.58
2022-08-29T00:58:30.839Z,1.40
2022-08-29T01:01:02.487Z,1.45
2022-08-29T01:03:42.832Z,1.30
2022-08-29T01:06:15.994Z,1.40
2022-08-29T01:08:47.641Z,1.60
2022-08-29T01:11:38.548Z,1.60
2022-08-29T01:14:09.590Z,1.40
2022-08-29T01:16:42.010Z,1.50
2022-08-29T01:19:28.009Z,1.40
2022-08-29T01:22:10.323Z,1.35
2022-08-29T01:24:51.171Z,1.65
2022-08-29T01:27:25.947Z,1.50
2022-08-29T01:29:56.998Z,1.23
2022-08-29T01:32:28.613Z,1.23
2022-08-29T01:34:59.473Z,1.15
2022-08-29T01:37:35.488Z,1.58
2022-08-29T01:40:11.303Z,1.60
2022-08-29T01:42:41.804Z,1.42
2022-08-29T01:45:13.712Z,1.25
2022-08-29T01:47:44.886Z,1.27
2022-08-29T01:50:18.717Z,1.20
2022-08-29T01:52:49.212Z,1.45
2022-08-29T01:55:21.601Z,1.35
2022-08-29T01:57:52.325Z,1.23
2022-08-29T02:00:23.809Z,1.33
2022-08-29T02:02:57.282Z,1.40
2022-08-29T02:05:27.477Z,1.55
2022-08-29T02:07:59.066Z,1.50
2022-08-29T02:10:32.283Z,1.40
2022-08-29T02:13:03.101Z,1.60
2022-08-29T02:15:33.694Z,1.42
2022-08-29T02:18:04.422Z,1.40
2022-08-29T02:20:34.908Z,1.35
2022-08-29T02:23:17.273Z,1.48
2022-08-29T02:25:59.212Z,1.35
2022-08-29T02:28:30.273Z,1.67
2022-08-29T02:31:02.136Z,1.40
2022-08-29T02:33:34.047Z,1.52
2022-08-29T02:36:06.045Z,1.40
2022-08-29T02:38:37.728Z,1.40
2022-08-29T02:41:14.133Z,1.50
2022-08-29T02:43:45.771Z,1.38
2022-08-29T02:46:21.901Z,1.40
2022-08-29T02:49:00.494Z,1.30
2022-08-29T02:51:35.210Z,1.55
2022-08-29T02:54:07.020Z,1.67
2022-08-29T02:56:39.829Z,1.58
2022-08-29T02:59:11.310Z,1.50
2022-08-29T03:01:42.474Z,1.60
2022-08-29T03:04:13.137Z,1.50
2022-08-29T03:06:44.474Z,1.30
2022-08-29T03:09:15.136Z,1.40
2022-08-29T03:11:47.527Z,1.70
2022-08-29T03:14:18.906Z,1.42
2022-08-29T03:16:49.703Z,1.27
2022-08-29T03:19:21.308Z,1.42
2022-08-29T03:21:52.930Z,1.40
2022-08-29T03:24:26.341Z,1.48
2022-08-29T03:26:59.972Z,1.55
2022-08-29T03:29:30.577Z,1.60
2022-08-29T03:32:01.402Z,1.50
2022-08-29T03:34:31.888Z,1.65
2022-08-29T03:37:03.363Z,1.60
2022-08-29T03:39:34.052Z,1.60
2022-08-29T03:42:07.819Z,1.40
2022-08-29T03:44:41.773Z,1.42
2022-08-29T03:47:12.562Z,1.60
2022-08-29T03:49:44.240Z,1.48
2022-08-29T03:52:15.083Z,1.40
2022-08-29T03:54:45.240Z,1.40
2022-08-29T03:57:18.567Z,1.20
2022-08-29T03:59:49.033Z,1.38
2022-08-29T04:02:24.926Z,1.30
2022-08-29T04:05:10.513Z,1.55
2022-08-29T04:07:44.540Z,1.60
2022-08-29T04:10:19.466Z,1.52
2022-08-29T04:12:54.925Z,1.50
2022-08-29T04:15:27.697Z,1.38
2022-08-29T04:18:03.111Z,1.30
2022-08-29T04:20:38.171Z,1.42
2022-08-29T04:23:09.477Z,1.70
2022-08-29T04:25:40.280Z,1.52
2022-08-29T04:28:18.635Z,1.63
2022-08-29T04:30:51.766Z,1.38
2022-08-29T04:33:25.909Z,1.48
2022-08-29T04:35:57.119Z,1.55
2022-08-29T04:38:27.792Z,1.40
2022-08-29T04:40:58.818Z,1.50
2022-08-29T04:43:31.048Z,1.60
2022-08-29T04:46:01.901Z,1.48
2022-08-29T04:48:32.373Z,1.60
2022-08-29T04:51:04.803Z,1.50
2022-08-29T04:53:35.996Z,1.50
2022-08-29T04:56:11.976Z,1.63
2022-08-29T04:58:48.378Z,1.70
2022-08-29T05:01:22.628Z,1.65
2022-08-29T05:03:55.787Z,1.48
2022-08-29T05:06:28.216Z,1.73
2022-08-29T05:09:00.121Z,1.60
2022-08-29T05:11:34.973Z,1.88
2022-08-29T05:14:07.331Z,1.70
2022-08-29T05:16:39.663Z,1.60
2022-08-29T05:19:15.551Z,1.65
2022-08-29T05:21:46.686Z,1.63
2022-08-29T05:24:19.699Z,1.70
2022-08-29T05:26:50.336Z,1.65
2022-08-29T05:29:23.116Z,1.60
2022-08-29T05:31:53.557Z,1.60
2022-08-29T05:34:33.904Z,1.67
2022-08-29T05:37:08.994Z,1.65
2022-08-29T05:39:40.485Z,1.60
2022-08-29T05:42:12.445Z,1.55
2022-08-29T05:44:45.801Z,1.60
2022-08-29T05:47:19.637Z,1.58
2022-08-29T05:49:51.995Z,1.50
2022-08-29T05:52:23.831Z,1.70
2022-08-29T05:54:54.876Z,1.50
2022-08-29T05:57:26.839Z,1.70
2022-08-29T05:59:59.415Z,1.60
2022-08-29T06:02:29.491Z,1.55
2022-08-29T06:05:00.477Z,1.60
2022-08-29T06:07:31.476Z,1.67
2022-08-29T06:10:07.263Z,1.70
2022-08-29T06:12:38.615Z,1.50
2022-08-29T06:15:12.715Z,1.65
2022-08-29T06:17:43.365Z,2.00
2022-08-29T06:20:15.028Z,2.40
2022-08-29T06:22:45.814Z,2.60
2022-08-29T06:25:38.091Z,2.50
2022-08-29T06:28:08.168Z,2.40
2022-08-29T06:30:41.568Z,2.33
2022-08-29T06:33:12.267Z,2.22
2022-08-29T06:35:42.520Z,2.05
2022-08-29T06:38:14.253Z,2.20
2022-08-29T06:40:44.977Z,2.40
2022-08-29T06:43:15.771Z,2.10
2022-08-29T06:45:49.792Z,2.10
2022-08-29T06:48:20.816Z,2.17
2022-08-29T06:50:52.130Z,2.10
2022-08-29T06:53:32.133Z,2.15
2022-08-29T06:56:11.543Z,2.00
2022-08-29T06:58:42.895Z,1.90
2022-08-29T07:01:19.205Z,1.80
2022-08-29T07:03:50.424Z,1.85
2022-08-29T07:06:22.878Z,1.77
2022-08-29T07:08:55.812Z,1.80
2022-08-29T07:11:28.097Z,1.58
2022-08-29T07:14:01.222Z,1.73
2022-08-29T07:16:36.491Z,1.55
2022-08-29T07:19:08.659Z,1.70
2022-08-29T07:21:40.516Z,1.70
2022-08-29T07:24:11.818Z,1.63
2022-08-29T07:26:46.669Z,1.60
2022-08-29T07:29:21.290Z,1.58
2022-08-29T07:31:54.465Z,1.63
2022-08-29T07:34:25.540Z,1.50
2022-08-29T07:36:56.642Z,1.52
2022-08-29T07:39:34.428Z,1.67
2022-08-29T07:42:05.499Z,1.50
2022-08-29T07:44:35.754Z,1.60
2022-08-29T07:47:09.174Z,1.50
2022-08-29T07:49:44.378Z,1.50
2022-08-29T07:52:14.752Z,1.50
2022-08-29T07:54:45.414Z,1.50
2022-08-29T07:57:19.447Z,1.48
2022-08-29T07:59:49.705Z,1.75
2022-08-29T08:02:23.699Z,1.40
2022-08-29T08:04:55.120Z,1.40
2022-08-29T08:07:29.403Z,1.52
2022-08-29T08:10:01.067Z,1.60
2022-08-29T08:12:32.141Z,1.40
2022-08-29T08:15:04.139Z,1.77
2022-08-29T08:17:44.076Z,1.48
2022-08-29T08:20:16.872Z,1.45
2022-08-29T08:22:47.776Z,1.50
2022-08-29T08:25:18.273Z,1.60
2022-08-29T08:27:55.574Z,1.60
2022-08-29T08:30:25.793Z,1.45
2022-08-29T08:32:58.467Z,1.40
2022-08-29T08:35:30.578Z,1.40
2022-08-29T08:38:03.110Z,1.58
2022-08-29T08:40:35.448Z,1.40
2022-08-29T08:43:05.817Z,1.35
2022-08-29T08:45:52.604Z,1.40
2022-08-29T08:48:34.933Z,1.50
2022-08-29T08:51:16.727Z,1.48
2022-08-29T08:53:51.380Z,1.48
2022-08-29T08:56:31.557Z,1.30
2022-08-29T08:59:17.865Z,1.40
2022-08-29T09:02:07.411Z,1.23
2022-08-29T09:04:59.021Z,1.40
2022-08-29T09:07:55.661Z,1.33
2022-08-29T09:10:44.133Z,1.63
2022-08-29T09:13:31.819Z,1.50
2022-08-29T09:16:11.406Z,1.45
2022-08-29T09:18:57.608Z,1.15
2022-08-29T09:21:46.956Z,1.33
2022-08-29T09:24:31.386Z,1.50
2022-08-29T09:27:01.819Z,1.50
2022-08-29T09:29:34.972Z,1.30
2022-08-29T09:32:13.077Z,1.40
2022-08-29T09:35:08.006Z,1.50
2022-08-29T09:37:41.661Z,1.42
2022-08-29T09:40:19.444Z,1.58
2022-08-29T09:43:03.500Z,1.40
2022-08-29T09:45:34.461Z,1.20
2022-08-29T09:48:20.122Z,1.27
2022-08-29T09:50:51.319Z,1.30
2022-08-29T09:53:28.437Z,1.45
2022-08-29T09:56:19.070Z,1.30
2022-08-29T09:59:04.539Z,1.52
2022-08-29T10:01:36.767Z,1.30
2022-08-29T10:04:10.978Z,1.50
2022-08-29T10:06:47.242Z,1.58
2022-08-29T10:09:32.184Z,1.45
2022-08-29T10:12:14.457Z,1.50
2022-08-29T10:14:54.456Z,1.50
2022-08-29T10:17:56.452Z,1.60
2022-08-29T10:20:43.355Z,1.40
2022-08-29T10:23:29.177Z,1.33
2022-08-29T10:26:08.414Z,1.40
2022-08-29T10:28:48.726Z,1.10
2022-08-29T10:31:33.093Z,1.50
2022-08-29T10:34:28.055Z,1.50
2022-08-29T10:37:08.826Z,1.50
2022-08-29T10:39:51.156Z,1.30
2022-08-29T10:42:29.140Z,1.50
2022-08-29T10:45:18.819Z,1.35
2022-08-29T10:48:03.390Z,1.50
2022-08-29T10:50:47.554Z,1.45
2022-08-29T10:53:26.713Z,1.40
2022-08-29T10:56:06.451Z,1.00
2022-08-29T10:59:00.814Z,1.10
2022-08-29T11:01:38.707Z,1.20
2022-08-29T11:04:19.794Z,1.33
2022-08-29T11:07:03.185Z,1.00
2022-08-29T11:09:43.335Z,1.20
2022-08-29T11:12:21.201Z,1.00
2022-08-29T11:15:02.785Z,1.20
2022-08-29T11:17:41.297Z,1.33
2022-08-29T11:20:18.903Z,1.30
2022-08-29T11:22:57.296Z,1.25
2022-08-29T11:25:28.923Z,1.00
2022-08-29T11:28:11.720Z,0.90
2022-08-29T11:30:56.166Z,1.35
2022-08-29T11:33:40.502Z,1.20
2022-08-29T11:36:48.243Z,1.40
2022-08-29T11:39:53.330Z,1.60
2022-08-29T11:45:36.913Z,1.30
2022-08-29T11:48:36.566Z,1.20
2022-08-29T11:51:38.227Z,1.33
2022-08-29T11:54:51.962Z,1.20
2022-08-29T11:57:51.639Z,1.08
2022-08-29T12:00:39.852Z,1.13
2022-08-29T12:03:47.515Z,1.23
2022-08-29T12:06:57.413Z,1.20
2022-08-29T12:09:48.955Z,1.10
2022-08-29T12:12:48.893Z,1.15
2022-08-29T12:15:56.783Z,1.13
2022-08-29T12:18:53.454Z,1.20
2022-08-29T12:21:47.740Z,1.02
2022-08-29T12:24:39.402Z,1.20
2022-08-29T12:27:47.946Z,1.08
2022-08-29T12:30:18.985Z,1.00
2022-08-29T12:33:10.370Z,1.10
2022-08-29T12:36:25.353Z,1.10
2022-08-29T12:39:19.390Z,1.20
2022-08-29T12:42:22.651Z,1.08
2022-08-29T12:45:04.957Z,1.20
2022-08-29T12:47:46.003Z,1.17
2022-08-29T12:50:22.569Z,1.20
2022-08-29T12:53:07.090Z,1.20
2022-08-29T12:55:45.061Z,0.90
2022-08-29T12:58:38.045Z,1.17
2022-08-29T13:01:22.679Z,1.17
2022-08-29T13:04:07.839Z,1.20
2022-08-29T13:06:39.551Z,0.98
2022-08-29T13:09:17.779Z,1.02
2022-08-29T13:11:48.765Z,1.02
2022-08-29T13:14:21.852Z,1.30
2022-08-29T13:17:36.419Z,1.23
2022-08-29T13:20:49.132Z,1.33
2022-08-29T13:23:28.053Z,1.30
2022-08-29T13:26:07.519Z,1.20
2022-08-29T13:28:46.580Z,1.27
2022-08-29T13:31:39.219Z,1.30
2022-08-29T13:34:19.842Z,1.00
2022-08-29T13:37:48.708Z,1.08
2022-08-29T13:40:39.262Z,0.93
2022-08-29T13:43:39.664Z,1.27
2022-08-29T13:46:21.398Z,1.10
2022-08-29T13:49:02.353Z,1.20
2022-08-29T13:51:33.158Z,1.15
2022-08-29T13:54:04.722Z,1.20
2022-08-29T13:59:14.927Z,1.17
2022-08-29T14:04:39.373Z,1.10
2022-08-29T14:07:14.559Z,1.23
2022-08-29T14:09:47.941Z,1.20
2022-08-29T14:12:18.989Z,1.20
2022-08-29T14:14:52.367Z,1.27
2022-08-29T14:17:25.466Z,1.30
2022-08-29T14:19:56.623Z,1.00
2022-08-29T14:22:28.628Z,1.20
2022-08-29T14:24:59.405Z,1.25
2022-08-29T14:27:30.265Z,1.17
2022-08-29T14:30:03.326Z,1.48
2022-08-29T14:32:34.508Z,1.27
2022-08-29T14:35:05.490Z,1.20
2022-08-29T14:37:36.905Z,1.13
2022-08-29T14:40:21.861Z,1.23
2022-08-29T14:42:53.528Z,1.30
2022-08-29T14:45:26.641Z,1.13
2022-08-29T14:48:02.336Z,1.10
2022-08-29T14:50:40.042Z,1.50
2022-08-29T14:53:11.285Z,1.00
2022-08-29T14:55:42.073Z,1.40
2022-08-29T14:58:13.344Z,1.30
2022-08-29T15:00:58.819Z,1.30
2022-08-29T15:03:30.688Z,1.20
2022-08-29T15:06:02.368Z,1.40
2022-08-29T15:08:40.157Z,1.23
2022-08-29T15:11:12.373Z,1.45
2022-08-29T15:13:45.641Z,1.30
2022-08-29T15:16:23.436Z,1.40
2022-08-29T15:19:40.597Z,1.50
2022-08-29T15:21:57.907Z,1.30
2022-08-29T15:24:43.191Z,1.20
2022-08-29T15:27:17.782Z,1.30
2022-08-29T15:29:53.434Z,1.30
2022-08-29T15:32:26.371Z,1.23
2022-08-29T15:35:15.205Z,1.45
2022-08-29T15:37:49.751Z,1.40
2022-08-29T15:40:24.609Z,1.42
2022-08-29T15:43:00.719Z,1.40
2022-08-29T15:45:32.135Z,1.60
2022-08-29T15:48:11.600Z,1.40
2022-08-29T15:50:43.681Z,1.40
2022-08-29T15:53:14.014Z,1.45
2022-08-29T15:55:44.641Z,1.52
2022-08-29T15:58:15.336Z,1.60
2022-08-29T16:00:47.307Z,1.45
2022-08-29T16:03:20.740Z,1.60
2022-08-29T16:05:51.616Z,1.50
2022-08-29T16:08:25.898Z,1.60
2022-08-29T16:11:01.801Z,1.52
2022-08-29T16:13:33.111Z,1.70
2022-08-29T16:16:04.281Z,1.77
2022-08-29T16:18:36.793Z,1.80
2022-08-29T16:21:08.377Z,1.65
2022-08-29T16:23:38.782Z,1.60
2022-08-29T16:26:12.265Z,2.00
2022-08-29T16:28:43.208Z,1.80
2022-08-29T16:31:14.226Z,1.70
2022-08-29T16:33:48.233Z,1.73
2022-08-29T16:36:21.633Z,1.50
2022-08-29T16:38:53.423Z,1.60
2022-08-29T16:41:25.732Z,1.58
2022-08-29T16:43:57.048Z,1.58
2022-08-29T16:46:31.036Z,1.45
2022-08-29T16:49:05.222Z,1.70
2022-08-29T16:51:36.721Z,1.80
2022-08-29T16:54:07.857Z,1.50
2022-08-29T16:56:40.440Z,1.75
2022-08-29T16:59:13.535Z,1.60
2022-08-29T17:01:46.924Z,1.75
2022-08-29T17:04:23.878Z,1.80
2022-08-29T17:06:56.067Z,1.90
2022-08-29T17:09:26.997Z,1.90
2022-08-29T17:11:56.509Z,1.92
2022-08-29T17:14:26.198Z,1.90
2022-08-29T17:16:58.110Z,1.90
2022-08-29T17:19:33.198Z,1.80
2022-08-29T17:22:04.355Z,1.77
2022-08-29T17:24:34.990Z,1.80
2022-08-29T17:27:06.441Z,1.67
2022-08-29T17:29:37.903Z,1.73
2022-08-29T17:32:18.963Z,1.63
2022-08-29T17:34:51.985Z,1.80
2022-08-29T17:37:22.722Z,1.95
2022-08-29T17:39:57.500Z,1.80
2022-08-29T17:42:30.746Z,1.88
2022-08-29T17:45:01.658Z,1.83
2022-08-29T17:47:33.096Z,1.90
2022-08-29T17:50:06.900Z,1.77
2022-08-29T17:52:40.406Z,1.80
2022-08-29T17:55:12.600Z,1.75
2022-08-29T17:57:43.376Z,1.90
2022-08-29T18:00:15.256Z,1.80
2022-08-29T18:02:48.176Z,1.98
2022-08-29T18:05:23.786Z,1.55
2022-08-29T18:08:00.082Z,1.83
2022-08-29T18:10:43.580Z,1.98
2022-08-29T18:13:16.670Z,2.08
2022-08-29T18:15:52.618Z,1.98
2022-08-29T18:18:24.353Z,2.05
2022-08-29T18:20:56.975Z,1.98
2022-08-29T18:23:28.107Z,2.10
2022-08-29T18:25:58.682Z,1.85
2022-08-29T18:28:29.747Z,1.90
2022-08-29T18:31:01.962Z,2.05
2022-08-29T18:33:50.375Z,1.85
2022-08-29T18:36:27.782Z,1.80
2022-08-29T18:38:59.544Z,1.70
2022-08-29T18:41:30.446Z,2.00
2022-08-29T18:44:01.710Z,2.03
2022-08-29T18:46:32.142Z,2.33
2022-08-29T18:49:03.398Z,2.05
2022-08-29T18:51:38.697Z,2.22
2022-08-29T18:54:10.851Z,1.98
2022-08-29T18:56:43.012Z,2.10
2022-08-29T18:59:13.813Z,2.00
2022-08-29T19:01:46.601Z,2.05
2022-08-29T19:04:16.734Z,2.05
2022-08-29T19:06:56.043Z,2.08
2022-08-29T19:09:27.492Z,2.20
2022-08-29T19:12:00.198Z,2.08
2022-08-29T19:14:31.518Z,2.10
2022-08-29T19:17:03.518Z,2.08
2022-08-29T19:19:55.042Z,1.90
2022-08-29T19:22:26.463Z,2.00
2022-08-29T19:24:57.945Z,1.98
2022-08-29T19:27:42.670Z,2.00
2022-08-29T19:30:16.134Z,2.20
2022-08-29T19:32:46.668Z,2.20
2022-08-29T19:35:18.797Z,2.20
2022-08-29T19:37:52.422Z,2.05
2022-08-29T19:40:24.270Z,2.15
2022-08-29T19:42:56.264Z,2.05
2022-08-29T19:45:29.133Z,2.30
2022-08-29T19:48:01.884Z,1.98
2022-08-29T19:50:32.864Z,2.20
2022-08-29T19:53:10.768Z,2.20
2022-08-29T19:55:42.319Z,2.10
2022-08-29T19:58:14.391Z,2.00
2022-08-29T20:00:47.203Z,2.10
2022-08-29T20:03:19.142Z,2.10
2022-08-29T20:05:49.730Z,2.47
2022-08-29T20:08:23.926Z,2.20
2022-08-29T20:10:56.437Z,2.05
2022-08-29T20:13:32.817Z,2.00
2022-08-29T20:16:14.814Z,1.90
2022-08-29T20:18:50.468Z,2.00
2022-08-29T20:21:25.937Z,1.98
2022-08-29T20:23:58.664Z,2.10
2022-08-29T20:26:33.900Z,1.92
2022-08-29T20:29:08.437Z,1.83
2022-08-29T20:31:41.099Z,1.92
2022-08-29T20:34:13.244Z,2.20
2022-08-29T20:37:00.222Z,2.00
2022-08-29T20:39:33.717Z,1.90
2022-08-29T20:42:05.959Z,2.33
2022-08-29T20:44:41.515Z,2.00
2022-08-29T20:47:15.694Z,2.13
2022-08-29T20:49:47.059Z,2.22
2022-08-29T20:52:21.174Z,2.33
2022-08-29T20:54:55.207Z,2.10
2022-08-29T20:57:26.054Z,2.10
2022-08-29T20:59:56.686Z,2.08
2022-08-29T21:02:40.258Z,2.03
2022-08-29T21:05:29.666Z,1.90
2022-08-29T21:08:01.803Z,1.92
2022-08-29T21:10:36.448Z,2.20
2022-08-29T21:13:08.203Z,2.10
2022-08-29T21:15:39.136Z,2.00
2022-08-29T21:18:10.632Z,1.92
2022-08-29T21:20:54.028Z,2.05
2022-08-29T21:23:27.481Z,2.42
2022-08-29T21:26:03.444Z,2.10
2022-08-29T21:28:35.300Z,2.13
2022-08-29T21:31:10.669Z,2.10
2022-08-29T21:33:44.160Z,2.30
2022-08-29T21:36:18.733Z,2.00
2022-08-29T21:38:54.624Z,2.00
2022-08-29T21:41:32.767Z,2.03
2022-08-29T21:44:04.798Z,2.10
2022-08-29T21:46:39.088Z,2.15
2022-08-29T21:49:09.904Z,2.40
2022-08-29T21:51:41.869Z,2.20
2022-08-29T21:54:13.943Z,1.88
2022-08-29T21:56:49.747Z,1.92
2022-08-29T21:59:22.467Z,2.10
2022-08-29T22:01:55.077Z,2.13
2022-08-29T22:04:28.908Z,2.15
2022-08-29T22:07:00.940Z,2.10
2022-08-29T22:09:33.989Z,2.13
2022-08-29T22:12:07.513Z,2.10
2022-08-29T22:14:55.274Z,1.98
2022-08-29T22:17:26.307Z,2.10
2022-08-29T22:19:57.374Z,2.08
2022-08-29T22:22:29.248Z,2.20
2022-08-29T22:25:00.481Z,2.10
2022-08-29T22:27:33.683Z,2.10
2022-08-29T22:30:04.998Z,2.10
2022-08-29T22:32:36.559Z,1.90
2022-08-29T22:35:09.375Z,2.05
2022-08-29T22:37:40.922Z,2.00
2022-08-29T22:40:15.785Z,1.73
2022-08-29T22:42:50.204Z,2.00
2022-08-29T22:45:21.943Z,1.92
2022-08-29T22:47:52.418Z,1.88
2022-08-29T22:50:26.966Z,1.77
2022-08-29T22:52:59.335Z,2.00
2022-08-29T22:58:02.614Z,2.22
2022-08-29T23:00:34.704Z,2.17
2022-08-29T23:03:06.476Z,2.25
2022-08-29T23:05:37.283Z,2.28
2022-08-29T23:08:08.424Z,2.08
2022-08-29T23:10:39.186Z,2.00
2022-08-29T23:13:11.689Z,2.10
2022-08-29T23:15:43.319Z,2.05
2022-08-29T23:18:13.981Z,2.03
2022-08-29T23:20:46.770Z,1.77
2022-08-29T23:23:18.520Z,2.20
2022-08-29T23:25:49.105Z,1.90
2022-08-29T23:28:22.289Z,2.20
2022-08-29T23:30:52.804Z,2.15
2022-08-29T23:33:25.448Z,1.80
2022-08-29T23:35:55.910Z,2.17
2022-08-29T23:38:27.195Z,2.05
2022-08-29T23:41:00.953Z,2.20
2022-08-29T23:43:36.951Z,2.00
2022-08-29T23:46:08.929Z,2.10
2022-08-29T23:48:40.086Z,2.22
2022-08-29T23:51:15.755Z,2.25
2022-08-29T23:53:48.447Z,2.10
2022-08-29T23:56:21.963Z,2.22
2022-08-29T23:58:57.553Z,2.20
